sensor_id;sensor_type;location;lat;lon;timestamp;pressure;altitude;pressure_sealevel;temperature;humidity
77263;BME280;66373;52.334;4.806;2023-05-07T00:00:57;101563.16;;;21.56;48.16
77263;BME280;66373;52.334;4.806;2023-05-07T00:03:27;101553.66;;;21.52;47.93
77263;BME280;66373;52.334;4.806;2023-05-07T00:05:55;101557.06;;;21.56;48.09
77263;BME280;66373;52.334;4.806;2023-05-07T00:08:22;101557.06;;;21.56;47.71
77263;BME280;66373;52.334;4.806;2023-05-07T00:10:49;101559.72;;;21.54;47.70
77263;BME280;66373;52.334;4.806;2023-05-07T00:13:16;101560.59;;;21.53;48.15
77263;BME280;66373;52.334;4.806;2023-05-07T00:15:43;101535.50;;;21.45;48.11
77263;BME280;66373;52.334;4.806;2023-05-07T00:18:12;101546.75;;;21.48;48.29
77263;BME280;66373;52.334;4.806;2023-05-07T00:20:39;101559.78;;;21.51;48.18
77263;BME280;66373;52.334;4.806;2023-05-07T00:23:06;101563.31;;;21.49;48.31
77263;BME280;66373;52.334;4.806;2023-05-07T00:25:33;101565.88;;;21.52;48.22
77263;BME280;66373;52.334;4.806;2023-05-07T00:28:00;101562.44;;;21.50;48.42
77263;BME280;66373;52.334;4.806;2023-05-07T00:30:29;101563.31;;;21.49;48.32
77263;BME280;66373;52.334;4.806;2023-05-07T00:32:56;101560.72;;;21.49;48.12
77263;BME280;66373;52.334;4.806;2023-05-07T00:35:24;101555.47;;;21.49;47.95
77263;BME280;66373;52.334;4.806;2023-05-07T00:37:51;101548.66;;;21.42;48.37
77263;BME280;66373;52.334;4.806;2023-05-07T00:40:18;101547.66;;;21.47;48.17
77263;BME280;66373;52.334;4.806;2023-05-07T00:42:45;101546.88;;;21.44;48.30
77263;BME280;66373;52.334;4.806;2023-05-07T00:45:14;101552.03;;;21.47;48.33
77263;BME280;66373;52.334;4.806;2023-05-07T00:47:42;101548.59;;;21.45;48.36
77263;BME280;66373;52.334;4.806;2023-05-07T00:50:10;101543.50;;;21.39;48.30
77263;BME280;66373;52.334;4.806;2023-05-07T00:52:39;101546.88;;;21.44;48.68
77263;BME280;66373;52.334;4.806;2023-05-07T00:55:07;101546.88;;;21.44;48.48
77263;BME280;66373;52.334;4.806;2023-05-07T00:57:37;101546.88;;;21.44;48.28
77263;BME280;66373;52.334;4.806;2023-05-07T01:00:06;101545.16;;;21.43;48.52
77263;BME280;66373;52.334;4.806;2023-05-07T01:02:34;101548.66;;;21.42;48.30
77263;BME280;66373;52.334;4.806;2023-05-07T01:05:03;101551.28;;;21.42;48.31
77263;BME280;66373;52.334;4.806;2023-05-07T01:07:32;101552.16;;;21.41;48.43
77263;BME280;66373;52.334;4.806;2023-05-07T01:10:02;101553.88;;;21.42;48.72
77263;BME280;66373;52.334;4.806;2023-05-07T01:12:30;101555.69;;;21.40;48.39
77263;BME280;66373;52.334;4.806;2023-05-07T01:14:58;101557.44;;;21.39;48.46
77263;BME280;66373;52.334;4.806;2023-05-07T01:17:25;101549.59;;;21.39;48.36
77263;BME280;66373;52.334;4.806;2023-05-07T01:19:53;101548.72;;;21.39;48.47
77263;BME280;66373;52.334;4.806;2023-05-07T01:22:29;101548.72;;;21.39;48.55
77263;BME280;66373;52.334;4.806;2023-05-07T01:24:58;101522.94;;;21.23;48.37
77263;BME280;66373;52.334;4.806;2023-05-07T01:27:28;101551.38;;;21.37;48.44
77263;BME280;66373;52.334;4.806;2023-05-07T01:29:55;101545.44;;;21.30;48.64
77263;BME280;66373;52.334;4.806;2023-05-07T01:32:29;101533.31;;;21.28;48.48
77263;BME280;66373;52.334;4.806;2023-05-07T01:34:58;101542.66;;;21.37;48.33
77263;BME280;66373;52.334;4.806;2023-05-07T01:37:28;101540.94;;;21.36;48.57
77263;BME280;66373;52.334;4.806;2023-05-07T01:39:56;101535.78;;;21.32;48.41
77263;BME280;66373;52.334;4.806;2023-05-07T01:42:24;101541.84;;;21.34;48.46
77263;BME280;66373;52.334;4.806;2023-05-07T01:44:51;101536.59;;;21.34;48.32
77263;BME280;66373;52.334;4.806;2023-05-07T01:47:18;101544.47;;;21.34;48.60
77263;BME280;66373;52.334;4.806;2023-05-07T01:49:47;101531.50;;;21.30;48.75
77263;BME280;66373;52.334;4.806;2023-05-07T01:52:14;101517.69;;;21.23;48.91
77263;BME280;66373;52.334;4.806;2023-05-07T01:54:43;101536.69;;;21.31;48.75
77263;BME280;66373;52.334;4.806;2023-05-07T01:57:10;101525.59;;;21.22;48.66
77263;BME280;66373;52.334;4.806;2023-05-07T01:59:37;101532.38;;;21.30;48.20
77263;BME280;66373;52.334;4.806;2023-05-07T02:02:04;101535.00;;;21.30;48.59
77263;BME280;66373;52.334;4.806;2023-05-07T02:04:32;101537.59;;;21.30;48.67
77263;BME280;66373;52.334;4.806;2023-05-07T02:06:59;101537.59;;;21.30;48.29
77263;BME280;66373;52.334;4.806;2023-05-07T02:09:26;101536.78;;;21.28;48.33
77263;BME280;66373;52.334;4.806;2023-05-07T02:11:55;101536.78;;;21.28;48.64
77263;BME280;66373;52.334;4.806;2023-05-07T02:14:23;101532.44;;;21.27;48.30
77263;BME280;66373;52.334;4.806;2023-05-07T02:16:51;101535.91;;;21.28;48.28
77263;BME280;66373;52.334;4.806;2023-05-07T02:19:18;101531.63;;;21.25;48.29
77263;BME280;66373;52.334;4.806;2023-05-07T02:21:47;101533.34;;;21.26;48.59
77263;BME280;66373;52.334;4.806;2023-05-07T02:24:14;101531.63;;;21.25;48.68
77263;BME280;66373;52.334;4.806;2023-05-07T02:26:42;101524.69;;;21.23;48.25
77263;BME280;66373;52.334;4.806;2023-05-07T02:29:10;101532.50;;;21.24;48.68
77263;BME280;66373;52.334;4.806;2023-05-07T02:31:38;101524.72;;;21.21;48.62
77263;BME280;66373;52.334;4.806;2023-05-07T02:34:05;101517.00;;;21.14;48.50
77263;BME280;66373;52.334;4.806;2023-05-07T02:36:32;101540.34;;;21.24;48.41
77263;BME280;66373;52.334;4.806;2023-05-07T02:39:05;101544.75;;;21.22;48.61
77263;BME280;66373;52.334;4.806;2023-05-07T02:41:32;101542.22;;;21.18;48.50
77263;BME280;66373;52.334;4.806;2023-05-07T02:43:59;101543.94;;;21.20;48.56
77263;BME280;66373;52.334;4.806;2023-05-07T02:46:27;101548.28;;;21.21;48.66
77263;BME280;66373;52.334;4.806;2023-05-07T02:49:02;101533.56;;;21.14;48.59
77263;BME280;66373;52.334;4.806;2023-05-07T02:51:30;101543.94;;;21.20;48.57
77263;BME280;66373;52.334;4.806;2023-05-07T02:54:00;101552.66;;;21.19;48.42
77263;BME280;66373;52.334;4.806;2023-05-07T02:56:28;101546.59;;;21.17;48.59
77263;BME280;66373;52.334;4.806;2023-05-07T02:58:56;101536.31;;;21.08;48.33
77263;BME280;66373;52.334;4.806;2023-05-07T03:01:26;101545.69;;;21.18;48.58
77263;BME280;66373;52.334;4.806;2023-05-07T03:04:00;101550.94;;;21.18;48.15
77263;BME280;66373;52.334;4.806;2023-05-07T03:06:27;101547.53;;;21.13;48.27
77263;BME280;66373;52.334;4.806;2023-05-07T03:08:54;101549.34;;;21.11;48.18
77263;BME280;66373;52.334;4.806;2023-05-07T03:11:21;101534.56;;;21.09;48.46
77263;BME280;66373;52.334;4.806;2023-05-07T03:13:48;101548.38;;;21.15;48.27
77263;BME280;66373;52.334;4.806;2023-05-07T03:16:17;101538.94;;;21.08;48.56
77263;BME280;66373;52.334;4.806;2023-05-07T03:18:44;101546.69;;;21.13;48.67
77263;BME280;66373;52.334;4.806;2023-05-07T03:21:13;101533.78;;;21.05;48.41
77263;BME280;66373;52.334;4.806;2023-05-07T03:23:40;101538.00;;;21.11;48.23
77263;BME280;66373;52.334;4.806;2023-05-07T03:26:07;101547.53;;;21.13;48.70
77263;BME280;66373;52.334;4.806;2023-05-07T03:28:34;101539.69;;;21.13;48.54
77263;BME280;66373;52.334;4.806;2023-05-07T03:31:04;101531.06;;;21.10;48.53
77263;BME280;66373;52.334;4.806;2023-05-07T03:33:33;101528.41;;;21.11;48.63
77263;BME280;66373;52.334;4.806;2023-05-07T03:36:00;101531.03;;;21.11;48.20
77263;BME280;66373;52.334;4.806;2023-05-07T03:38:29;101533.63;;;21.11;48.64
77263;BME280;66373;52.334;4.806;2023-05-07T03:40:56;101522.53;;;21.02;48.63
77263;BME280;66373;52.334;4.806;2023-05-07T03:43:24;101514.72;;;21.00;48.28
77263;BME280;66373;52.334;4.806;2023-05-07T03:45:58;101519.88;;;21.05;48.69
77263;BME280;66373;52.334;4.806;2023-05-07T03:48:27;101531.97;;;21.07;48.50
77263;BME280;66373;52.334;4.806;2023-05-07T03:50:57;101528.53;;;21.05;48.79
77263;BME280;66373;52.334;4.806;2023-05-07T03:53:29;101532.81;;;21.09;48.56
77263;BME280;66373;52.334;4.806;2023-05-07T03:55:56;101530.44;;;21.00;48.70
77263;BME280;66373;52.334;4.806;2023-05-07T03:58:23;101541.56;;;21.08;48.39
77263;BME280;66373;52.334;4.806;2023-05-07T04:00:52;101524.38;;;20.98;48.87
77263;BME280;66373;52.334;4.806;2023-05-07T04:03:24;101542.44;;;21.07;48.48
77263;BME280;66373;52.334;4.806;2023-05-07T04:05:52;101544.19;;;21.07;48.91
77263;BME280;66373;52.334;4.806;2023-05-07T04:08:19;101537.38;;;21.01;49.28
77263;BME280;66373;52.334;4.806;2023-05-07T04:10:55;101544.22;;;21.05;48.84
77263;BME280;66373;52.334;4.806;2023-05-07T04:13:24;101547.78;;;21.04;49.10
77263;BME280;66373;52.334;4.806;2023-05-07T04:15:51;101549.47;;;21.05;49.10
77263;BME280;66373;52.334;4.806;2023-05-07T04:18:19;101537.44;;;20.98;49.32
77263;BME280;66373;52.334;4.806;2023-05-07T04:20:48;101535.66;;;21.00;49.21
77263;BME280;66373;52.334;4.806;2023-05-07T04:23:15;101524.53;;;20.90;49.08
77263;BME280;66373;52.334;4.806;2023-05-07T04:25:43;101542.63;;;21.01;49.23
77263;BME280;66373;52.334;4.806;2023-05-07T04:28:23;101551.28;;;21.03;49.35
77263;BME280;66373;52.334;4.806;2023-05-07T04:30:51;101534.91;;;20.93;49.16
77263;BME280;66373;52.334;4.806;2023-05-07T04:33:20;101552.19;;;21.02;49.23
77263;BME280;66373;52.334;4.806;2023-05-07T04:35:49;101541.00;;;20.94;49.36
77263;BME280;66373;52.334;4.806;2023-05-07T04:38:16;101547.88;;;20.99;49.33
77263;BME280;66373;52.334;4.806;2023-05-07T04:40:45;101547.03;;;20.97;49.47
77263;BME280;66373;52.334;4.806;2023-05-07T04:43:17;101553.06;;;21.01;49.55
77263;BME280;66373;52.334;4.806;2023-05-07T04:45:51;101547.84;;;21.01;49.00
77263;BME280;66373;52.334;4.806;2023-05-07T04:48:19;101542.69;;;20.98;49.28
77263;BME280;66373;52.334;4.806;2023-05-07T04:50:48;101539.22;;;20.96;49.23
77263;BME280;66373;52.334;4.806;2023-05-07T04:53:16;101548.72;;;21.00;49.24
77263;BME280;66373;52.334;4.806;2023-05-07T04:55:43;101550.47;;;21.01;49.33
77263;BME280;66373;52.334;4.806;2023-05-07T04:58:10;101544.50;;;20.94;48.99
77263;BME280;66373;52.334;4.806;2023-05-07T05:00:38;101549.63;;;20.99;49.40
77263;BME280;66373;52.334;4.806;2023-05-07T05:03:08;101552.25;;;20.99;49.29
77263;BME280;66373;52.334;4.806;2023-05-07T05:05:37;101547.00;;;20.99;49.18
77263;BME280;66373;52.334;4.806;2023-05-07T05:08:04;101550.53;;;20.98;49.21
77263;BME280;66373;52.334;4.806;2023-05-07T05:10:32;101543.69;;;20.91;48.92
77263;BME280;66373;52.334;4.806;2023-05-07T05:12:59;101546.28;;;20.92;48.99
77263;BME280;66373;52.334;4.806;2023-05-07T05:15:27;101554.84;;;20.99;49.08
77263;BME280;66373;52.334;4.806;2023-05-07T05:17:54;101551.44;;;20.95;48.95
77263;BME280;66373;52.334;4.806;2023-05-07T05:20:23;101561.88;;;20.97;49.10
77263;BME280;66373;52.334;4.806;2023-05-07T05:22:51;101559.25;;;20.97;49.41
77263;BME280;66373;52.334;4.806;2023-05-07T05:25:18;101566.22;;;20.98;49.09
77263;BME280;66373;52.334;4.806;2023-05-07T05:27:45;101571.47;;;20.96;49.13
77263;BME280;66373;52.334;4.806;2023-05-07T05:30:13;101536.13;;;20.79;49.08
77263;BME280;66373;52.334;4.806;2023-05-07T05:32:44;101587.16;;;20.96;49.44
77263;BME280;66373;52.334;4.806;2023-05-07T05:35:11;101572.41;;;20.94;49.15
77263;BME280;66373;52.334;4.806;2023-05-07T05:37:41;101587.16;;;20.96;49.33
77263;BME280;66373;52.334;4.806;2023-05-07T05:40:09;101556.22;;;20.77;49.31
77263;BME280;66373;52.334;4.806;2023-05-07T05:42:36;101588.97;;;20.93;49.17
77263;BME280;66373;52.334;4.806;2023-05-07T05:45:04;101597.63;;;20.96;48.96
77263;BME280;66373;52.334;4.806;2023-05-07T05:47:33;101596.81;;;20.94;49.32
77263;BME280;66373;52.334;4.806;2023-05-07T05:50:00;101577.88;;;20.82;49.08
77263;BME280;66373;52.334;4.806;2023-05-07T05:52:27;101597.66;;;20.95;49.34
77263;BME280;66373;52.334;4.806;2023-05-07T05:54:56;101596.84;;;20.93;48.84
77263;BME280;66373;52.334;4.806;2023-05-07T05:57:27;101600.34;;;20.92;49.29
77263;BME280;66373;52.334;4.806;2023-05-07T05:59:54;101568.41;;;20.78;48.85
77263;BME280;66373;52.334;4.806;2023-05-07T06:02:21;101596.84;;;20.93;49.43
77263;BME280;66373;52.334;4.806;2023-05-07T06:04:48;101606.38;;;20.95;49.02
77263;BME280;66373;52.334;4.806;2023-05-07T06:07:18;101600.34;;;20.92;48.96
77263;BME280;66373;52.334;4.806;2023-05-07T06:09:45;101606.38;;;20.95;48.83
77263;BME280;66373;52.334;4.806;2023-05-07T06:12:14;101605.56;;;20.92;48.81
77263;BME280;66373;52.334;4.806;2023-05-07T06:14:42;101615.06;;;20.96;48.93
77263;BME280;66373;52.334;4.806;2023-05-07T06:17:10;101617.69;;;20.96;49.28
77263;BME280;66373;52.334;4.806;2023-05-07T06:19:38;101610.75;;;20.95;49.32
77263;BME280;66373;52.334;4.806;2023-05-07T06:22:05;101616.81;;;20.97;49.00
77263;BME280;66373;52.334;4.806;2023-05-07T06:24:33;101619.44;;;20.95;48.91
77263;BME280;66373;52.334;4.806;2023-05-07T06:27:00;101622.03;;;20.97;48.96
77263;BME280;66373;52.334;4.806;2023-05-07T06:29:30;101623.78;;;20.96;49.18
77263;BME280;66373;52.334;4.806;2023-05-07T06:32:06;101625.50;;;20.97;49.18
77263;BME280;66373;52.334;4.806;2023-05-07T06:34:34;101621.13;;;20.98;49.08
77263;BME280;66373;52.334;4.806;2023-05-07T06:37:01;101617.75;;;20.93;49.05
77263;BME280;66373;52.334;4.806;2023-05-07T06:39:45;101628.22;;;20.93;49.30
77263;BME280;66373;52.334;4.806;2023-05-07T06:42:12;101629.88;;;20.97;48.93
77263;BME280;66373;52.334;4.806;2023-05-07T06:44:43;101626.44;;;20.95;49.31
77263;BME280;66373;52.334;4.806;2023-05-07T06:47:12;101609.06;;;20.91;49.04
77263;BME280;66373;52.334;4.806;2023-05-07T06:49:40;101609.94;;;20.91;49.08
77263;BME280;66373;52.334;4.806;2023-05-07T06:52:07;101609.13;;;20.88;49.35
77263;BME280;66373;52.334;4.806;2023-05-07T06:54:35;101595.28;;;20.83;49.03
77263;BME280;66373;52.334;4.806;2023-05-07T06:57:02;101619.41;;;20.97;49.21
77263;BME280;66373;52.334;4.806;2023-05-07T06:59:30;101620.25;;;20.99;49.27
77263;BME280;66373;52.334;4.806;2023-05-07T07:02:00;101621.97;;;21.00;49.42
77263;BME280;66373;52.334;4.806;2023-05-07T07:04:27;101617.63;;;20.99;49.51
77263;BME280;66373;52.334;4.806;2023-05-07T07:07:01;101619.34;;;21.00;49.21
77263;BME280;66373;52.334;4.806;2023-05-07T07:09:28;101620.25;;;20.99;49.17
77263;BME280;66373;52.334;4.806;2023-05-07T07:11:56;101591.72;;;20.87;49.05
77263;BME280;66373;52.334;4.806;2023-05-07T07:14:23;101593.38;;;20.91;49.54
77263;BME280;66373;52.334;4.806;2023-05-07T07:16:53;101590.84;;;20.88;50.11
77263;BME280;66373;52.334;4.806;2023-05-07T07:19:22;101579.66;;;20.80;49.99
77263;BME280;66373;52.334;4.806;2023-05-07T07:21:52;101613.97;;;21.06;49.90
77263;BME280;66373;52.334;4.806;2023-05-07T07:24:19;101618.22;;;21.12;50.54
77263;BME280;66373;52.334;4.806;2023-05-07T07:26:50;101623.47;;;21.10;50.63
77263;BME280;66373;52.334;4.806;2023-05-07T07:29:19;101623.31;;;21.18;50.64
77263;BME280;66373;52.334;4.806;2023-05-07T07:31:48;101615.63;;;21.10;50.70
77263;BME280;66373;52.334;4.806;2023-05-07T07:34:15;101632.91;;;21.20;50.28
77263;BME280;66373;52.334;4.806;2023-05-07T07:36:44;101627.66;;;21.19;50.65
77263;BME280;66373;52.334;4.806;2023-05-07T07:39:11;101634.63;;;21.20;50.28
77263;BME280;66373;52.334;4.806;2023-05-07T07:41:38;101628.59;;;21.16;50.03
77263;BME280;66373;52.334;4.806;2023-05-07T07:44:05;101607.00;;;21.05;49.95
77263;BME280;66373;52.334;4.806;2023-05-07T07:46:36;101624.38;;;21.09;50.16
77263;BME280;66373;52.334;4.806;2023-05-07T07:49:03;101626.88;;;21.15;50.43
77263;BME280;66373;52.334;4.806;2023-05-07T07:51:31;101624.31;;;21.12;50.47
77263;BME280;66373;52.334;4.806;2023-05-07T07:54:01;101632.97;;;21.16;50.86
77263;BME280;66373;52.334;4.806;2023-05-07T07:56:29;101639.94;;;21.15;51.01
77263;BME280;66373;52.334;4.806;2023-05-07T07:58:57;101628.69;;;21.12;51.06
77263;BME280;66373;52.334;4.806;2023-05-07T08:01:24;101626.03;;;21.13;50.92
77263;BME280;66373;52.334;4.806;2023-05-07T08:03:52;101635.41;;;21.25;50.45
77263;BME280;66373;52.334;4.806;2023-05-07T08:06:20;101627.31;;;21.36;50.93
77263;BME280;66373;52.334;4.806;2023-05-07T08:08:48;101624.56;;;21.42;50.66
77263;BME280;66373;52.334;4.806;2023-05-07T08:11:18;101624.53;;;21.43;50.96
77263;BME280;66373;52.334;4.806;2023-05-07T08:13:45;101624.44;;;21.48;51.34
77263;BME280;66373;52.334;4.806;2023-05-07T08:16:13;101628.78;;;21.49;51.30
77263;BME280;66373;52.334;4.806;2023-05-07T08:18:41;101629.63;;;21.49;51.34
77263;BME280;66373;52.334;4.806;2023-05-07T08:21:08;101633.19;;;21.47;51.63
77263;BME280;66373;52.334;4.806;2023-05-07T08:23:35;101634.00;;;21.49;51.80
77263;BME280;66373;52.334;4.806;2023-05-07T08:26:03;101640.13;;;21.48;51.56
77263;BME280;66373;52.334;4.806;2023-05-07T08:28:32;101644.47;;;21.49;51.98
77263;BME280;66373;52.334;4.806;2023-05-07T08:30:59;101646.06;;;21.56;52.17
77263;BME280;66373;52.334;4.806;2023-05-07T08:33:29;101640.97;;;21.50;52.19
77263;BME280;66373;52.334;4.806;2023-05-07T08:35:56;101645.25;;;21.54;52.22
77263;BME280;66373;52.334;4.806;2023-05-07T08:38:24;101637.38;;;21.54;52.70
77263;BME280;66373;52.334;4.806;2023-05-07T08:40:51;101653.72;;;21.63;52.95
77263;BME280;66373;52.334;4.806;2023-05-07T08:43:20;101635.50;;;21.59;52.49
77263;BME280;66373;52.334;4.806;2023-05-07T08:45:52;101633.69;;;21.61;52.58
77263;BME280;66373;52.334;4.806;2023-05-07T08:48:22;101661.28;;;21.77;52.20
77263;BME280;66373;52.334;4.806;2023-05-07T08:51:20;101649.94;;;21.77;51.92
77263;BME280;66373;52.334;4.806;2023-05-07T08:53:49;101650.72;;;21.80;51.99
77263;BME280;66373;52.334;4.806;2023-05-07T08:56:22;101652.53;;;21.78;52.11
77263;BME280;66373;52.334;4.806;2023-05-07T08:58:51;101643.19;;;21.66;51.87
77263;BME280;66373;52.334;4.806;2023-05-07T09:01:24;101660.41;;;21.77;51.50
77263;BME280;66373;52.334;4.806;2023-05-07T09:03:53;101654.25;;;21.79;51.96
77263;BME280;66373;52.334;4.806;2023-05-07T09:06:22;101610.38;;;21.52;51.56
77263;BME280;66373;52.334;4.806;2023-05-07T09:08:50;101653.53;;;21.73;51.62
77263;BME280;66373;52.334;4.806;2023-05-07T09:11:20;101622.50;;;21.56;51.42
77263;BME280;66373;52.334;4.806;2023-05-07T09:13:51;101656.81;;;21.81;51.46
77263;BME280;66373;52.334;4.806;2023-05-07T09:16:21;101666.44;;;21.80;51.61
77263;BME280;66373;52.334;4.806;2023-05-07T09:18:51;101661.94;;;21.85;51.48
77263;BME280;66373;52.334;4.806;2023-05-07T09:21:34;101662.81;;;21.84;51.59
77263;BME280;66373;52.334;4.806;2023-05-07T09:24:06;101662.78;;;21.86;51.39
77263;BME280;66373;52.334;4.806;2023-05-07T09:26:37;101644.63;;;21.80;50.99
77263;BME280;66373;52.334;4.806;2023-05-07T09:29:06;101655.81;;;21.85;51.09
77263;BME280;66373;52.334;4.806;2023-05-07T09:31:36;101618.66;;;21.71;51.39
77263;BME280;66373;52.334;4.806;2023-05-07T09:34:06;101653.06;;;21.91;50.96
77263;BME280;66373;52.334;4.806;2023-05-07T09:36:35;101659.09;;;21.94;51.30
77263;BME280;66373;52.334;4.806;2023-05-07T09:39:03;101649.50;;;21.93;51.12
77263;BME280;66373;52.334;4.806;2023-05-07T09:41:30;101661.59;;;21.99;51.20
77263;BME280;66373;52.334;4.806;2023-05-07T09:44:13;101646.91;;;21.93;51.07
77263;BME280;66373;52.334;4.806;2023-05-07T09:46:47;101645.97;;;21.96;51.01
77263;BME280;66373;52.334;4.806;2023-05-07T09:49:24;101660.56;;;22.08;51.08
77263;BME280;66373;52.334;4.806;2023-05-07T09:52:01;101662.22;;;22.10;50.76
77263;BME280;66373;52.334;4.806;2023-05-07T09:54:32;101639.75;;;22.02;50.86
77263;BME280;66373;52.334;4.806;2023-05-07T09:57:02;101649.81;;;22.17;50.69
77263;BME280;66373;52.334;4.806;2023-05-07T09:59:31;101657.69;;;22.17;50.48
77263;BME280;66373;52.334;4.806;2023-05-07T10:02:03;101641.22;;;22.12;50.51
77263;BME280;66373;52.334;4.806;2023-05-07T10:04:35;101601.59;;;21.88;50.61
77263;BME280;66373;52.334;4.806;2023-05-07T10:07:03;101660.09;;;22.26;50.47
77263;BME280;66373;52.334;4.806;2023-05-07T10:09:32;101657.44;;;22.27;50.48
77263;BME280;66373;52.334;4.806;2023-05-07T10:12:00;101665.25;;;22.29;50.63
77263;BME280;66373;52.334;4.806;2023-05-07T10:14:28;101633.28;;;22.15;50.48
77263;BME280;66373;52.334;4.806;2023-05-07T10:16:57;101667.78;;;22.32;50.24
77263;BME280;66373;52.334;4.806;2023-05-07T10:19:26;101673.78;;;22.35;50.57
77263;BME280;66373;52.334;4.806;2023-05-07T10:22:01;101654.78;;;22.29;50.72
77263;BME280;66373;52.334;4.806;2023-05-07T10:24:32;101664.31;;;22.31;50.60
77263;BME280;66373;52.334;4.806;2023-05-07T10:27:05;101672.81;;;22.40;50.43
77263;BME280;66373;52.334;4.806;2023-05-07T10:29:38;101659.81;;;22.35;50.32
77263;BME280;66373;52.334;4.806;2023-05-07T10:32:18;101670.28;;;22.37;50.57
77263;BME280;66373;52.334;4.806;2023-05-07T10:34:49;101673.59;;;22.43;50.35
77263;BME280;66373;52.334;4.806;2023-05-07T10:37:19;101673.53;;;22.46;50.36
77263;BME280;66373;52.334;4.806;2023-05-07T10:39:47;101677.75;;;22.52;50.48
77263;BME280;66373;52.334;4.806;2023-05-07T10:42:14;101676.91;;;22.51;50.60
77263;BME280;66373;52.334;4.806;2023-05-07T10:44:47;101674.31;;;22.50;50.24
77263;BME280;66373;52.334;4.806;2023-05-07T10:47:21;101678.63;;;22.52;50.11
77263;BME280;66373;52.334;4.806;2023-05-07T10:50:20;101673.38;;;22.52;50.21
77263;BME280;66373;52.334;4.806;2023-05-07T10:53:23;101662.97;;;22.49;50.18
77263;BME280;66373;52.334;4.806;2023-05-07T10:56:25;101667.34;;;22.49;50.54
77263;BME280;66373;52.334;4.806;2023-05-07T10:59:30;101678.53;;;22.55;50.71
77263;BME280;66373;52.334;4.806;2023-05-07T11:02:04;101688.13;;;22.56;50.99
77263;BME280;66373;52.334;4.806;2023-05-07T11:05:21;101678.47;;;22.58;50.97
77263;BME280;66373;52.334;4.806;2023-05-07T11:08:20;101682.81;;;22.59;51.08
77263;BME280;66373;52.334;4.806;2023-05-07T11:11:04;101681.03;;;22.60;51.14
77263;BME280;66373;52.334;4.806;2023-05-07T11:13:43;101681.91;;;22.60;51.32
77263;BME280;66373;52.334;4.806;2023-05-07T11:16:21;101672.25;;;22.61;50.96
77263;BME280;66373;52.334;4.806;2023-05-07T11:18:55;101681.78;;;22.63;51.25
77263;BME280;66373;52.334;4.806;2023-05-07T11:21:37;101681.72;;;22.66;50.87
77263;BME280;66373;52.334;4.806;2023-05-07T11:24:26;101671.50;;;22.57;50.93
77263;BME280;66373;52.334;4.806;2023-05-07T11:26:59;101686.16;;;22.63;51.13
77263;BME280;66373;52.334;4.806;2023-05-07T11:29:28;101680.25;;;22.56;51.07
77263;BME280;66373;52.334;4.806;2023-05-07T11:32:03;101682.06;;;22.54;51.25
77263;BME280;66373;52.334;4.806;2023-05-07T11:34:38;101691.06;;;22.44;51.72
77263;BME280;66373;52.334;4.806;2023-05-07T11:37:05;101691.19;;;22.38;51.95
77263;BME280;66373;52.334;4.806;2023-05-07T11:39:48;101678.19;;;22.35;51.88
77263;BME280;66373;52.334;4.806;2023-05-07T11:42:27;101684.94;;;22.44;51.91
77263;BME280;66373;52.334;4.806;2023-05-07T11:44:55;101681.34;;;22.48;51.67
77263;BME280;66373;52.334;4.806;2023-05-07T11:47:22;101678.69;;;22.49;51.69
77263;BME280;66373;52.334;4.806;2023-05-07T11:49:51;101643.47;;;22.27;51.92
77263;BME280;66373;52.334;4.806;2023-05-07T11:52:20;101688.94;;;22.58;51.70
77263;BME280;66373;52.334;4.806;2023-05-07T11:54:51;101688.03;;;22.59;51.58
77263;BME280;66373;52.334;4.806;2023-05-07T11:57:20;101686.53;;;22.51;51.74
77263;BME280;66373;52.334;4.806;2023-05-07T11:59:52;101677.03;;;22.45;52.02
77263;BME280;66373;52.334;4.806;2023-05-07T12:02:19;101690.91;;;22.50;51.93
77263;BME280;66373;52.334;4.806;2023-05-07T12:04:46;101672.75;;;22.43;52.13
77263;BME280;66373;52.334;4.806;2023-05-07T12:07:14;101690.81;;;22.53;51.87
77263;BME280;66373;52.334;4.806;2023-05-07T12:09:41;101690.66;;;22.59;51.85
77263;BME280;66373;52.334;4.806;2023-05-07T12:12:08;101659.09;;;22.30;51.94
77263;BME280;66373;52.334;4.806;2023-05-07T12:14:38;101693.63;;;22.46;51.88
77263;BME280;66373;52.334;4.806;2023-05-07T12:17:07;101697.13;;;22.46;52.24
77263;BME280;66373;52.334;4.806;2023-05-07T12:19:36;101695.28;;;22.50;52.25
77263;BME280;66373;52.334;4.806;2023-05-07T12:22:03;101693.47;;;22.52;52.62
77263;BME280;66373;52.334;4.806;2023-05-07T12:24:43;101627.22;;;22.13;52.37
77263;BME280;66373;52.334;4.806;2023-05-07T12:27:10;101673.72;;;22.39;52.09
77263;BME280;66373;52.334;4.806;2023-05-07T12:29:38;101630.59;;;22.18;52.34
77263;BME280;66373;52.334;4.806;2023-05-07T12:32:15;101670.09;;;22.44;52.57
77263;BME280;66373;52.334;4.806;2023-05-07T12:34:42;101654.59;;;22.35;52.49
77263;BME280;66373;52.334;4.806;2023-05-07T12:37:09;101688.94;;;22.58;52.66
77263;BME280;66373;52.334;4.806;2023-05-07T12:39:38;101668.28;;;22.46;52.78
77263;BME280;66373;52.334;4.806;2023-05-07T12:42:14;101681.13;;;22.57;52.55
77263;BME280;66373;52.334;4.806;2023-05-07T12:44:41;101697.38;;;22.69;52.69
77263;BME280;66373;52.334;4.806;2023-05-07T12:47:16;101690.47;;;22.65;52.69
77263;BME280;66373;52.334;4.806;2023-05-07T12:49:43;101681.78;;;22.63;52.71
77263;BME280;66373;52.334;4.806;2023-05-07T12:52:11;101696.50;;;22.69;52.91
77263;BME280;66373;52.334;4.806;2023-05-07T12:54:39;101693.84;;;22.71;52.70
77263;BME280;66373;52.334;4.806;2023-05-07T12:57:08;101700.72;;;22.75;52.37
77263;BME280;66373;52.334;4.806;2023-05-07T12:59:36;101659.50;;;22.47;52.21
77263;BME280;66373;52.334;4.806;2023-05-07T13:02:06;101685.22;;;22.65;52.71
77263;BME280;66373;52.334;4.806;2023-05-07T13:04:36;101709.50;;;22.74;52.41